createdAt,value
2022-08-07T00:06:56.748Z,2.45
2022-08-07T00:17:06.638Z,2.20
2022-08-07T00:27:09.406Z,2.38
2022-08-07T00:37:13.472Z,2.80
2022-08-07T00:48:08.782Z,2.40
2022-08-07T00:57:44.408Z,2.20
2022-08-07T01:07:57.857Z,2.10
2022-08-07T01:18:00.466Z,2.60
2022-08-07T01:28:04.732Z,2.03
2022-08-07T01:38:10.411Z,2.40
2022-08-07T01:48:29.280Z,2.20
2022-08-07T01:58:41.013Z,2.17
2022-08-07T02:08:46.978Z,2.13
2022-08-07T02:19:05.474Z,1.80
2022-08-07T02:29:26.226Z,1.95
2022-08-07T02:39:43.495Z,1.75
2022-08-07T02:49:59.619Z,1.92
2022-08-07T03:00:11.247Z,1.75
2022-08-07T03:10:17.064Z,1.67
2022-08-07T03:20:20.517Z,1.67
2022-08-07T03:30:24.371Z,1.73
2022-08-07T03:40:30.980Z,2.30
2022-08-07T03:50:55.652Z,1.38
2022-08-07T04:01:04.962Z,1.30
2022-08-07T04:12:21.085Z,1.48
2022-08-07T04:21:34.535Z,1.20
2022-08-07T04:32:03.476Z,1.25
2022-08-07T04:42:04.126Z,2.08
2022-08-07T04:52:51.289Z,1.30
2022-08-07T05:03:17.295Z,1.90
2022-08-07T05:14:55.283Z,2.05
2022-08-07T05:24:13.652Z,1.73
2022-08-07T05:34:26.359Z,2.28
2022-08-07T05:44:33.852Z,2.33
2022-08-07T05:54:53.556Z,2.28
2022-08-07T06:05:03.803Z,1.73
2022-08-07T06:15:09.965Z,1.90
2022-08-07T06:25:19.643Z,2.20
2022-08-07T06:35:22.677Z,2.30
2022-08-07T06:45:25.943Z,1.48
2022-08-07T06:55:53.676Z,1.40
2022-08-07T07:06:04.893Z,1.70
2022-08-07T07:16:19.786Z,1.67
2022-08-07T07:26:35.182Z,1.40
2022-08-07T07:36:42.029Z,1.35
2022-08-07T07:46:55.787Z,1.30
2022-08-07T07:57:07.422Z,1.45
2022-08-07T08:07:13.514Z,1.67
2022-08-07T08:17:57.733Z,1.60
2022-08-07T08:27:56.603Z,1.05
2022-08-07T08:38:04.605Z,1.40
2022-08-07T08:48:42.141Z,1.10
2022-08-07T08:59:20.373Z,1.00
2022-08-07T09:09:40.242Z,0.98
2022-08-07T09:20:34.772Z,0.80
2022-08-07T09:30:46.741Z,1.00
2022-08-07T09:41:05.438Z,1.20
2022-08-07T09:52:16.158Z,0.88
2022-08-07T10:02:34.519Z,0.98
2022-08-07T10:12:54.458Z,0.80
2022-08-07T10:24:04.875Z,0.90
2022-08-07T10:44:28.403Z,0.80
2022-08-07T10:55:00.822Z,1.00
2022-08-07T11:05:35.962Z,1.08
2022-08-07T11:15:56.001Z,1.10
2022-08-07T11:26:14.131Z,0.98
2022-08-07T11:36:33.186Z,0.80
2022-08-07T11:46:38.027Z,1.10
2022-08-07T11:57:15.921Z,0.88
2022-08-07T12:07:27.107Z,1.67
2022-08-07T12:17:55.969Z,0.98
2022-08-07T12:28:16.205Z,1.45
2022-08-07T12:38:36.856Z,1.25
2022-08-07T12:48:55.114Z,1.17
2022-08-07T12:58:59.812Z,1.30
2022-08-07T13:10:20.542Z,1.20
2022-08-07T13:19:51.935Z,1.67
2022-08-07T13:30:19.027Z,1.23
2022-08-07T13:40:43.024Z,1.40
2022-08-07T13:51:00.163Z,1.40
2022-08-07T14:01:15.122Z,1.02
2022-08-07T14:11:23.983Z,1.02
2022-08-07T14:22:34.386Z,1.08
2022-08-07T14:32:19.129Z,1.40
2022-08-07T14:42:31.372Z,1.10
2022-08-07T14:52:38.852Z,1.15
2022-08-07T15:02:44.878Z,1.27
2022-08-07T15:13:06.166Z,1.48
2022-08-07T15:23:20.993Z,1.30
2022-08-07T15:33:43.877Z,1.33
2022-08-07T15:44:00.540Z,1.33
2022-08-07T15:54:04.693Z,1.50
2022-08-07T16:04:15.818Z,1.00
2022-08-07T16:14:30.053Z,1.40
2022-08-07T16:24:52.305Z,1.55
2022-08-07T16:35:58.362Z,1.63
2022-08-07T16:46:21.238Z,1.27
2022-08-07T16:56:20.787Z,1.00
2022-08-07T17:07:03.482Z,1.20
2022-08-07T17:17:17.536Z,1.17
2022-08-07T17:27:53.783Z,1.40
2022-08-07T17:38:32.029Z,1.23
2022-08-07T17:48:34.635Z,1.20
2022-08-07T17:58:56.864Z,1.00
2022-08-07T18:09:05.810Z,1.10
2022-08-07T18:21:06.590Z,0.88
2022-08-07T18:30:04.658Z,1.02
2022-08-07T18:40:17.995Z,1.00
2022-08-07T18:51:04.782Z,1.00
2022-08-07T19:02:18.305Z,1.25
2022-08-07T19:12:18.911Z,1.33
2022-08-07T19:22:31.278Z,0.98
2022-08-07T19:32:45.323Z,1.23
2022-08-07T19:42:49.532Z,1.00
2022-08-07T19:52:58.374Z,1.00
2022-08-07T20:03:34.829Z,1.25
2022-08-07T20:13:42.744Z,1.25
2022-08-07T20:23:53.825Z,1.17
2022-08-07T20:34:01.430Z,1.20
2022-08-07T20:44:10.451Z,1.10
2022-08-07T20:54:29.766Z,0.93
2022-08-07T21:04:34.840Z,1.20
2022-08-07T21:14:48.488Z,1.10
2022-08-07T21:25:12.257Z,0.93
2022-08-07T21:35:34.586Z,0.98
2022-08-07T21:46:24.557Z,0.98
2022-08-07T21:57:06.550Z,0.82
2022-08-07T22:07:19.256Z,1.05
2022-08-07T22:17:30.199Z,1.33
2022-08-07T22:28:24.621Z,0.93
2022-08-07T22:38:27.542Z,0.90
2022-08-07T22:49:00.801Z,0.77
2022-08-07T22:59:21.109Z,0.73
2022-08-07T23:10:05.986Z,1.38
2022-08-07T23:20:53.469Z,1.08
2022-08-07T23:32:49.445Z,1.10
2022-08-07T23:42:30.314Z,1.10
2022-08-07T23:53:02.037Z,0.98
